createdAt,value
2023-02-27T00:01:29.336Z,101673.63
2023-02-27T00:08:12.565Z,101677.91
2023-02-27T00:14:55.146Z,101689.09
2023-02-27T00:21:37.978Z,101687.31
2023-02-27T00:28:20.691Z,101692.25
2023-02-27T00:35:06.158Z,101691.25
2023-02-27T00:41:48.455Z,101692.75
2023-02-27T00:48:30.967Z,101690.81
2023-02-27T00:55:13.420Z,101702.41
2023-02-27T01:01:56.461Z,101726.50
2023-02-27T01:08:38.852Z,101712.94
2023-02-27T01:15:21.623Z,101714.84
2023-02-27T01:22:04.013Z,101702.91
2023-02-27T01:28:46.649Z,101704.50
2023-02-27T01:35:28.894Z,101714.41
2023-02-27T01:42:27.861Z,101721.69
2023-02-27T01:49:33.460Z,101733.53
2023-02-27T01:56:25.376Z,101750.78
2023-02-27T02:03:35.983Z,101749.16
2023-02-27T02:10:19.531Z,101743.97
2023-02-27T02:17:48.819Z,101743.84
2023-02-27T02:24:55.901Z,101742.75
2023-02-27T02:32:25.914Z,101743.59
2023-02-27T02:39:22.419Z,101749.69
2023-02-27T02:46:33.311Z,101748.88
2023-02-27T02:53:48.238Z,101748.88
2023-02-27T03:00:42.064Z,101757.56
2023-02-27T03:07:38.737Z,101766.38
2023-02-27T03:14:50.075Z,101785.53
2023-02-27T03:21:56.801Z,101791.53
2023-02-27T03:28:51.375Z,101797.72
2023-02-27T03:36:19.658Z,101808.03
2023-02-27T03:43:40.990Z,101814.16
2023-02-27T03:50:24.761Z,101820.22
2023-02-27T03:57:09.006Z,101822.94
2023-02-27T04:04:03.144Z,101826.41
2023-02-27T04:11:30.321Z,101831.66
2023-02-27T04:18:34.526Z,101833.41
2023-02-27T04:25:33.494Z,101835.91
2023-02-27T04:32:38.503Z,101849.69
2023-02-27T04:39:34.460Z,101842.94
2023-02-27T04:46:21.104Z,101842.47
2023-02-27T04:53:18.092Z,101861.75
2023-02-27T05:00:06.275Z,101860.03
2023-02-27T05:06:51.713Z,101868.81
2023-02-27T05:13:43.758Z,101872.31
2023-02-27T05:20:35.411Z,101873.94
2023-02-27T05:27:29.535Z,101879.78
2023-02-27T05:34:23.183Z,101895.31
2023-02-27T05:41:22.551Z,101909.91
2023-02-27T05:48:18.480Z,101903.78
2023-02-27T05:55:11.986Z,101923.59
2023-02-27T06:01:56.223Z,101934.81
2023-02-27T06:08:38.966Z,101943.47
2023-02-27T06:15:21.363Z,101942.63
2023-02-27T06:22:03.723Z,101946.88
2023-02-27T06:28:46.099Z,101953.72
2023-02-27T06:35:29.907Z,101963.16
2023-02-27T06:42:12.530Z,101976.16
2023-02-27T06:48:54.986Z,101984.13
2023-02-27T06:55:39.678Z,101985.50
2023-02-27T07:02:24.033Z,101993.78
2023-02-27T07:09:07.114Z,102004.41
2023-02-27T07:15:52.355Z,102021.31
2023-02-27T07:22:35.126Z,102024.34
2023-02-27T07:29:17.971Z,102033.31
2023-02-27T07:36:00.446Z,102036.31
2023-02-27T07:42:47.524Z,102034.13
2023-02-27T07:49:29.942Z,102034.69
2023-02-27T07:56:12.283Z,102044.81
2023-02-27T08:02:54.606Z,102038.78
2023-02-27T08:09:39.923Z,102046.63
2023-02-27T08:16:22.347Z,102052.56
2023-02-27T08:23:04.891Z,102052.41
2023-02-27T08:29:47.404Z,102054.78
2023-02-27T08:36:30.083Z,102069.09
2023-02-27T08:43:13.129Z,102077.81
2023-02-27T08:49:56.949Z,102074.22
2023-02-27T08:56:39.768Z,102080.06
2023-02-27T09:03:22.514Z,102082.31
2023-02-27T09:10:07.343Z,102084.53
2023-02-27T09:16:49.999Z,102102.75
2023-02-27T09:23:32.491Z,102109.84
2023-02-27T09:30:15.326Z,102113.81
2023-02-27T09:37:01.800Z,102124.25
2023-02-27T09:43:49.548Z,102115.91
2023-02-27T09:50:45.091Z,102118.84
2023-02-27T09:57:27.491Z,102139.91
2023-02-27T10:04:31.989Z,102133.81
2023-02-27T10:11:24.498Z,102140.03
2023-02-27T10:18:28.264Z,102143.66
2023-02-27T10:25:30.429Z,102162.41
2023-02-27T10:32:35.917Z,102167.28
2023-02-27T10:39:20.992Z,102168.53
2023-02-27T10:46:12.383Z,102177.03
2023-02-27T10:53:02.504Z,102183.97
2023-02-27T11:00:23.900Z,102186.78
2023-02-27T11:07:12.162Z,102182.94
2023-02-27T11:13:56.131Z,102189.72
2023-02-27T11:20:43.521Z,102187.56
2023-02-27T11:27:30.821Z,102190.44
2023-02-27T11:34:32.287Z,102191.31
2023-02-27T11:41:15.037Z,102190.25
2023-02-27T11:48:25.442Z,102194.84
2023-02-27T11:55:18.228Z,102185.97
2023-02-27T12:02:23.028Z,102192.16
2023-02-27T12:09:38.701Z,102199.81
2023-02-27T12:17:02.686Z,102208.53
2023-02-27T12:24:11.004Z,102205.72
2023-02-27T12:31:35.322Z,102209.72
2023-02-27T12:38:20.117Z,102211.38
2023-02-27T12:45:21.209Z,102211.09
2023-02-27T12:52:24.671Z,102211.97
2023-02-27T12:59:37.263Z,102226.13
2023-02-27T13:06:48.068Z,102233.00
2023-02-27T13:13:49.322Z,102233.06
2023-02-27T13:20:50.161Z,102230.50
2023-02-27T13:27:43.594Z,102246.06
2023-02-27T13:34:39.629Z,102237.22
2023-02-27T13:41:24.732Z,102246.94
2023-02-27T13:48:41.850Z,102253.00
2023-02-27T13:55:31.340Z,102249.56
2023-02-27T14:02:13.655Z,102253.47
2023-02-27T14:09:08.892Z,102253.47
2023-02-27T14:16:00.465Z,102254.78
2023-02-27T14:23:17.230Z,102255.88
2023-02-27T14:30:08.035Z,102262.47
2023-02-27T14:37:05.738Z,102260.59
2023-02-27T14:43:56.018Z,102263.13
2023-02-27T14:50:41.578Z,102275.25
2023-02-27T14:57:28.947Z,102272.47
2023-02-27T15:04:20.462Z,102261.63
2023-02-27T15:11:03.245Z,102271.88
2023-02-27T15:17:47.064Z,102280.41
2023-02-27T15:24:48.801Z,102276.50
2023-02-27T15:31:32.560Z,102281.94
2023-02-27T15:38:31.552Z,102282.22
2023-02-27T15:45:25.870Z,102294.59
2023-02-27T15:52:23.606Z,102300.78
2023-02-27T15:59:06.839Z,102318.22
2023-02-27T16:05:53.236Z,102315.81
2023-02-27T16:12:38.221Z,102328.91
2023-02-27T16:19:30.164Z,102335.59
2023-02-27T16:26:32.209Z,102340.81
2023-02-27T16:33:23.483Z,102343.59
2023-02-27T16:40:27.304Z,102336.78
2023-02-27T16:47:10.099Z,102340.41
2023-02-27T16:53:54.612Z,102352.66
2023-02-27T17:00:36.943Z,102361.44
2023-02-27T17:07:19.890Z,102363.38
2023-02-27T17:14:02.362Z,102374.81
2023-02-27T17:20:45.079Z,102371.59
2023-02-27T17:27:27.640Z,102372.50
2023-02-27T17:34:10.505Z,102371.78
2023-02-27T17:40:52.751Z,102377.75
2023-02-27T17:47:35.753Z,102390.13
2023-02-27T17:54:18.169Z,102393.72
2023-02-27T18:01:08.723Z,102400.75
2023-02-27T18:07:51.368Z,102404.13
2023-02-27T18:14:34.814Z,102407.75
2023-02-27T18:21:21.521Z,102426.63
2023-02-27T18:28:06.381Z,102429.22
2023-02-27T18:34:49.053Z,102433.63
2023-02-27T18:41:31.884Z,102438.09
2023-02-27T18:48:16.025Z,102433.16
2023-02-27T18:55:01.121Z,102443.56
2023-02-27T19:01:46.236Z,102455.03
2023-02-27T19:08:29.734Z,102452.44
2023-02-27T19:15:12.254Z,102467.44
2023-02-27T19:21:57.350Z,102476.91
2023-02-27T19:28:42.789Z,102475.38
2023-02-27T19:35:28.481Z,102487.78
2023-02-27T19:42:11.646Z,102491.31
2023-02-27T19:48:58.001Z,102491.66
2023-02-27T19:55:40.533Z,102478.38
2023-02-27T20:02:23.455Z,102486.38
2023-02-27T20:09:05.913Z,102492.06
2023-02-27T20:15:59.953Z,102499.25
2023-02-27T20:22:44.347Z,102499.59
2023-02-27T20:29:28.365Z,102495.94
2023-02-27T20:36:11.907Z,102507.38
2023-02-27T20:42:54.551Z,102501.84
2023-02-27T20:49:38.107Z,102515.31
2023-02-27T20:56:25.128Z,102522.69
2023-02-27T21:03:10.269Z,102518.72
2023-02-27T21:09:52.640Z,102516.06
2023-02-27T21:16:38.293Z,102522.81
2023-02-27T21:23:20.732Z,102522.50
2023-02-27T21:30:06.092Z,102530.06
2023-02-27T21:36:49.482Z,102523.13
2023-02-27T21:43:31.945Z,102517.16
2023-02-27T21:50:14.338Z,102521.44
2023-02-27T21:56:59.120Z,102533.06
2023-02-27T22:03:47.391Z,102534.53
2023-02-27T22:10:29.730Z,102529.09
2023-02-27T22:17:12.089Z,102530.47
2023-02-27T22:23:58.000Z,102530.94
2023-02-27T22:30:40.358Z,102530.75
2023-02-27T22:37:23.577Z,102522.91
2023-02-27T22:44:07.658Z,102528.66
2023-02-27T22:51:07.708Z,102527.84
2023-02-27T22:57:51.870Z,102522.78
2023-02-27T23:04:34.175Z,102532.78
2023-02-27T23:11:19.135Z,102527.13
2023-02-27T23:18:01.382Z,102530.38
2023-02-27T23:24:43.682Z,102528.28
2023-02-27T23:31:26.110Z,102531.13
2023-02-27T23:38:08.753Z,102532.97
2023-02-27T23:45:06.236Z,102524.72
2023-02-27T23:51:48.578Z,102520.63
2023-02-27T23:58:30.976Z,102519.31
